Airfield :







YOU CAN JOIN US ON...

 
LOGIN :

Register | Disclaimer

   EN    FR    IT 

 









Legend :    VFR   Marginal VFR   IFR   Intensive IFR   Very Intensive IFR
Visi :
Ceiling :
>= 8 km
>= 3000ft
5 to 8 km
1000 to 3000 ft
1500m to 5 km
500 to 1000 ft
800 to 1500m
200 to 500 ft
< 800m
< 200 ft
Symbols :   Thunderstorms  Fog  Heavy snow  Heavy precipitations  Wind > 20 kt






- Airport Elevation : 76 ft
- IATA code : PWM


KPWM - Portland International Jetport

CURRENT METAR :
  • 240851Z 17007KT 10SM BKN008 OVC049 19/19 A3008 RMK AO2 SLP186 T01940189 56004

EXPIRED METARs :
  • 240843Z AUTO 16009KT 10SM SCT008 OVC049 19/19 A3008 RMK AO2 T01940189
  • 240816Z AUTO 16010G15KT 10SM BKN008 OVC048 19/19 A3008 RMK AO2 T01940189
  • 240751Z AUTO 16007KT 10SM FEW008 OVC048 19/19 A3009 RMK AO2 SLP188 T01940189
  • 240709Z AUTO 17008KT 10SM SCT009 OVC060 20/19 A3009 RMK AO2 T02000189
  • 240651Z AUTO 16010KT 10SM SCT010 SCT046 OVC060 20/19 A3009 RMK AO2 SLP190 T02000189

TAF KPWM
Valid from the 24 at 09:00 until the 25 at 06:00 UTC


240915Z 2409/2506 16009KT P6SM VCSH OVC009
FM241500 14009KT P6SM VCSH OVC012
FM242100 13008KT 3SM SHRA BR OVC009
KZBW FIR / North America



MET'MAP, your aeronautical weather chart ! - Copyright ORBIFLY December 2007 - Disclaimer

ORBIFLY MET'MAP TEAM :

Programming & Development : Alexandra Zaïnal
Concept & original design : Baudouin d'Aumeries
Assistance for programming : Marc-Olivier Méhu
Technical & hardware support : Manuel Goepfert

Contact : metmap@orbifly.com




SOURCES & CREDITS :

   NOAA